Time;durP1;ratioP1;P1;durP2;ratioP2;P2;SDS_P1;SDS_P2;PMS_P1;PMS_P2;Temp;Humidity;BMP_temperature;BMP_pressure;BME280_temperature;BME280_humidity;BME280_pressure;Samples;Min_cycle;Max_cycle;Signal;HPM_P1;HPM_P2
2020/12/30 00:00:00;;;;;;;55.03;30.10;;;;;;;2.39;96.62;99473.25;5046793;28;20053;-80
2020/12/30 00:02:28;;;;;;;58.03;30.98;;;;;;;2.42;96.65;99477.38;5045391;28;20515;-81
2020/12/30 00:04:54;;;;;;;53.72;29.98;;;;;;;2.44;96.00;99471.09;5020059;28;20038;-80
2020/12/30 00:07:20;;;;;;;55.45;31.75;;;;;;;2.46;96.23;99471.81;5035455;28;20060;-83
2020/12/30 00:09:46;;;;;;;50.47;30.13;;;;;;;2.47;96.21;99472.66;5053219;28;20037;-83
2020/12/30 00:12:11;;;;;;;59.45;31.13;;;;;;;2.51;96.03;99474.03;5041644;28;20025;-81
2020/12/30 00:14:37;;;;;;;54.17;30.75;;;;;;;2.46;96.16;99474.41;5060746;28;20064;-82
2020/12/30 00:17:03;;;;;;;56.63;32.30;;;;;;;2.48;96.44;99480.25;5055933;28;20029;-81
2020/12/30 00:19:29;;;;;;;58.63;32.70;;;;;;;2.51;95.92;99481.78;5054759;28;20111;-81
2020/12/30 00:21:54;;;;;;;58.53;32.33;;;;;;;2.50;96.00;99487.91;5039188;28;20060;-81
2020/12/30 00:24:20;;;;;;;57.22;31.95;;;;;;;2.49;96.25;99484.50;5055015;28;20108;-82
2020/12/30 00:26:46;;;;;;;56.60;33.08;;;;;;;2.51;96.21;99479.22;5036306;28;20095;-81
2020/12/30 00:29:12;;;;;;;60.10;32.95;;;;;;;2.55;95.99;99482.38;5059344;28;20669;-81
2020/12/30 00:31:37;;;;;;;58.83;33.67;;;;;;;2.55;95.44;99488.34;5052769;28;20021;-81
2020/12/30 00:34:03;;;;;;;62.25;33.50;;;;;;;2.59;95.62;99494.09;5041127;28;20456;-81
2020/12/30 00:36:28;;;;;;;61.35;33.97;;;;;;;2.58;95.71;99493.28;5041446;28;20040;-81
2020/12/30 00:38:54;;;;;;;60.58;35.25;;;;;;;2.63;95.39;99492.91;5057504;28;20037;-78
2020/12/30 00:41:19;;;;;;;68.95;35.30;;;;;;;2.66;95.35;99495.25;5054473;28;20028;-80
2020/12/30 00:43:45;;;;;;;59.72;33.28;;;;;;;2.63;94.55;99496.31;5054128;28;20108;-82
2020/12/30 00:46:17;;;;;;;61.40;35.53;;;;;;;2.67;94.68;99492.50;5057867;28;20040;-79
2020/12/30 00:48:44;;;;;;;64.00;36.05;;;;;;;2.64;95.23;99500.56;5034342;28;20040;-80
2020/12/30 00:51:16;;;;;;;63.28;35.30;;;;;;;2.62;95.16;99504.19;5055593;28;20036;-83
2020/12/30 00:53:43;;;;;;;59.33;34.05;;;;;;;2.64;94.84;99508.31;5038850;28;20396;-82
2020/12/30 00:56:10;;;;;;;57.08;32.22;;;;;;;2.66;94.48;99505.63;5056767;28;20580;-81
2020/12/30 00:58:39;;;;;;;58.50;34.13;;;;;;;2.70;94.51;99518.16;5060540;28;20049;-82
2020/12/30 01:01:09;;;;;;;61.55;33.58;;;;;;;2.73;94.29;99510.16;5063505;28;20033;-83
2020/12/30 01:03:36;;;;;;;57.83;33.70;;;;;;;2.68;94.38;99520.06;5058664;28;20128;-82
2020/12/30 01:06:05;;;;;;;59.72;33.47;;;;;;;2.69;94.21;99521.72;5054813;28;20028;-82
2020/12/30 01:08:31;;;;;;;61.95;35.05;;;;;;;2.64;94.71;99521.25;5050134;28;20638;-79
2020/12/30 01:10:57;;;;;;;60.17;35.95;;;;;;;2.68;94.51;99533.00;5029280;28;20029;-83
2020/12/30 01:13:22;;;;;;;59.20;35.17;;;;;;;2.68;94.40;99527.84;5022207;28;20079;-80
2020/12/30 01:15:48;;;;;;;61.70;35.58;;;;;;;2.66;94.23;99532.31;5070644;28;20089;-80
2020/12/30 01:18:13;;;;;;;61.20;35.13;;;;;;;2.71;93.87;99534.50;5045131;28;20049;-80
2020/12/30 01:20:40;;;;;;;64.78;36.00;;;;;;;2.70;93.41;99535.47;5035565;28;20491;-81
2020/12/30 01:23:05;;;;;;;67.75;37.30;;;;;;;2.68;94.20;99539.97;5024065;28;20032;-81
2020/12/30 01:25:31;;;;;;;66.20;36.72;;;;;;;2.68;94.42;99533.00;5028891;28;20046;-80
2020/12/30 01:27:56;;;;;;;67.03;36.17;;;;;;;2.64;94.28;99531.63;5046772;28;20091;-80
2020/12/30 01:30:23;;;;;;;66.82;36.35;;;;;;;2.75;94.13;99542.84;5036960;28;20036;-80
2020/12/30 01:32:48;;;;;;;67.80;37.33;;;;;;;2.71;94.23;99545.72;5039629;28;20046;-79
2020/12/30 01:35:14;;;;;;;69.93;36.47;;;;;;;2.62;94.06;99535.25;5054289;28;20033;-81
2020/12/30 01:37:40;;;;;;;60.90;36.08;;;;;;;2.72;94.49;99549.94;5052836;28;20058;-80
2020/12/30 01:40:06;;;;;;;65.80;37.22;;;;;;;2.71;94.11;99545.72;5037163;28;20037;-80
2020/12/30 01:42:44;;;;;;;67.03;37.28;;;;;;;2.70;94.31;99549.25;5058854;28;20561;-80
2020/12/30 01:45:10;;;;;;;73.65;37.20;;;;;;;2.77;93.76;99556.50;5064975;28;20029;-78
2020/12/30 01:47:35;;;;;;;70.63;38.03;;;;;;;2.72;94.04;99549.94;5068140;28;20124;-80
2020/12/30 01:50:02;;;;;;;70.13;37.85;;;;;;;2.77;94.19;99548.72;5041850;28;20104;-81
2020/12/30 01:52:27;;;;;;;63.97;36.83;;;;;;;2.72;94.08;99549.13;5034480;28;20021;-79
2020/12/30 01:54:53;;;;;;;67.85;36.28;;;;;;;2.70;93.89;99540.66;5048545;28;20048;-82
2020/12/30 01:57:20;;;;;;;66.65;36.25;;;;;;;2.75;93.44;99546.28;5043208;28;20037;-80
2020/12/30 01:59:48;;;;;;;69.72;37.58;;;;;;;2.74;93.94;99552.41;5060351;28;20032;-79
2020/12/30 02:02:15;;;;;;;66.35;36.92;;;;;;;2.74;93.41;99557.59;5058007;28;20570;-79
2020/12/30 02:04:52;;;;;;;66.38;37.17;;;;;;;2.75;93.69;99558.41;5043570;28;20036;-81
2020/12/30 02:07:18;;;;;;;63.85;36.70;;;;;;;2.75;93.67;99558.41;5058731;28;20060;-79
2020/12/30 02:09:44;;;;;;;72.05;38.50;;;;;;;2.78;93.60;99561.56;5053687;28;20063;-79
2020/12/30 02:12:11;;;;;;;66.28;36.90;;;;;;;2.73;93.43;99554.19;5067418;28;20140;-80
2020/12/30 02:14:37;;;;;;;69.18;36.03;;;;;;;2.80;93.14;99561.44;5057673;28;20041;-80
2020/12/30 02:17:03;;;;;;;65.60;37.00;;;;;;;2.75;93.51;99555.81;5025546;28;20041;-79
2020/12/30 02:19:30;;;;;;;60.53;34.40;;;;;;;2.81;92.50;99560.50;5031188;28;20033;-81
2020/12/30 02:22:01;;;;;;;60.20;35.30;;;;;;;2.75;92.90;99548.03;5054116;28;20032;-79
2020/12/30 02:24:26;;;;;;;62.70;36.58;;;;;;;2.81;93.10;99560.50;5037176;28;20068;-80
2020/12/30 02:26:52;;;;;;;64.90;34.97;;;;;;;2.75;92.83;99555.81;5053146;28;20044;-80
2020/12/30 02:29:18;;;;;;;60.33;35.53;;;;;;;2.79;92.79;99570.13;5053523;28;20030;-81
2020/12/30 02:31:44;;;;;;;62.55;36.85;;;;;;;2.80;92.61;99569.22;5054023;28;20025;-81
2020/12/30 02:34:09;;;;;;;61.40;33.38;;;;;;;2.77;92.59;99564.25;5057070;28;20030;-82
2020/12/30 02:36:35;;;;;;;60.50;35.45;;;;;;;2.69;93.04;99560.56;5053807;28;20059;-80
2020/12/30 02:39:00;;;;;;;62.97;35.55;;;;;;;2.79;93.07;99567.56;5053190;28;20045;-81
2020/12/30 02:41:26;;;;;;;62.85;35.35;;;;;;;2.78;92.98;99566.72;5021572;28;20032;-80
2020/12/30 02:43:52;;;;;;;57.33;33.65;;;;;;;2.72;93.19;99559.47;5036531;28;20033;-81
2020/12/30 02:46:17;;;;;;;63.80;35.65;;;;;;;2.73;92.83;99561.94;5034532;28;20265;-81
2020/12/30 02:48:43;;;;;;;64.65;33.22;;;;;;;2.78;92.54;99576.28;5034228;28;20051;-80
2020/12/30 02:51:10;;;;;;;60.03;35.10;;;;;;;2.71;92.89;99570.75;5044085;28;20132;-80
2020/12/30 02:53:35;;;;;;;59.20;33.22;;;;;;;2.71;92.71;99578.53;5050119;28;20124;-80
2020/12/30 02:56:01;;;;;;;54.97;32.83;;;;;;;2.69;92.84;99572.66;5032145;28;20053;-83
2020/12/30 02:58:26;;;;;;;60.47;33.80;;;;;;;2.63;92.54;99568.81;5042191;28;20033;-79
2020/12/30 03:00:52;;;;;;;53.83;32.70;;;;;;;2.61;93.00;99575.06;5050784;28;20039;-82
2020/12/30 03:03:17;;;;;;;53.33;32.55;;;;;;;2.63;92.91;99571.38;5023132;28;20388;-83
2020/12/30 03:05:43;;;;;;;53.60;32.13;;;;;;;2.48;93.00;99557.09;5044905;28;20060;-82
2020/12/30 03:08:08;;;;;;;55.40;33.63;;;;;;;2.57;92.73;99560.72;5010106;28;20040;-82
2020/12/30 03:10:34;;;;;;;51.65;32.88;;;;;;;2.64;92.71;99573.03;5051611;28;20045;-82
2020/12/30 03:12:59;;;;;;;57.33;32.63;;;;;;;2.63;92.55;99576.56;5044061;28;20040;-81
2020/12/30 03:15:26;;;;;;;57.25;33.20;;;;;;;2.51;92.63;99564.63;5052437;28;20037;-82
2020/12/30 03:17:51;;;;;;;57.38;32.53;;;;;;;2.66;92.84;99591.88;5036447;28;20033;-82
2020/12/30 03:20:17;;;;;;;57.42;34.65;;;;;;;2.66;92.54;99589.28;5044977;28;20083;-83
2020/12/30 03:22:43;;;;;;;54.90;33.15;;;;;;;2.68;92.76;99589.97;5035335;28;20029;-84
2020/12/30 03:25:09;;;;;;;54.78;33.50;;;;;;;2.69;92.65;99583.88;5050764;28;20061;-84
2020/12/30 03:27:34;;;;;;;60.00;34.55;;;;;;;2.66;92.39;99578.91;5055598;28;20505;-83
2020/12/30 03:29:59;;;;;;;54.03;32.85;;;;;;;2.75;92.35;99584.28;5033571;28;20065;-82
2020/12/30 03:32:26;;;;;;;55.25;31.92;;;;;;;2.78;92.46;99597.00;5034496;28;20043;-82
2020/12/30 03:34:53;;;;;;;49.00;31.63;;;;;;;2.73;91.89;99584.41;5052340;28;20071;-80
2020/12/30 03:37:18;;;;;;;54.03;32.08;;;;;;;2.79;91.92;99602.06;5048396;28;20033;-81
2020/12/30 03:39:44;;;;;;;55.05;33.03;;;;;;;2.77;92.48;99584.97;5016299;28;20048;-82
2020/12/30 03:42:10;;;;;;;52.88;31.42;;;;;;;2.77;92.15;99597.94;5015995;28;20042;-81
2020/12/30 03:44:35;;;;;;;54.08;30.98;;;;;;;2.74;92.19;99591.25;5012925;28;20068;-81
2020/12/30 03:47:01;;;;;;;51.08;30.90;;;;;;;2.81;91.62;99594.16;5043695;28;20041;-81
2020/12/30 03:49:27;;;;;;;52.72;30.52;;;;;;;2.73;91.44;99592.19;5031691;28;20033;-81
2020/12/30 03:51:53;;;;;;;51.03;31.05;;;;;;;2.79;91.65;99601.22;5032668;28;20078;-83
2020/12/30 03:54:18;;;;;;;50.80;30.50;;;;;;;2.75;91.94;99595.50;5051816;28;20049;-84
2020/12/30 03:56:44;;;;;;;52.83;29.60;;;;;;;2.78;91.63;99600.41;5035637;28;20037;-81
2020/12/30 03:59:09;;;;;;;50.95;30.67;;;;;;;2.81;91.61;99601.94;5035525;28;20499;-82
2020/12/30 04:01:35;;;;;;;46.92;29.92;;;;;;;2.79;91.23;99606.41;5035357;28;20029;-84
2020/12/30 04:04:00;;;;;;;43.70;27.80;;;;;;;2.70;91.93;99590.66;5042314;28;20095;-83
2020/12/30 04:06:26;;;;;;;52.70;28.83;;;;;;;2.75;91.09;99603.25;5022963;28;20483;-82
2020/12/30 04:08:51;;;;;;;47.10;27.27;;;;;;;2.79;91.43;99604.66;5038800;28;20038;-82
2020/12/30 04:11:17;;;;;;;44.58;28.17;;;;;;;2.68;91.13;99597.75;5035082;28;20029;-83
2020/12/30 04:13:42;;;;;;;45.00;27.17;;;;;;;2.80;90.91;99614.03;5020508;28;20072;-83
2020/12/30 04:16:08;;;;;;;44.65;28.13;;;;;;;2.75;91.09;99607.59;5023183;28;20044;-84
2020/12/30 04:18:33;;;;;;;46.15;26.90;;;;;;;2.79;90.37;99616.75;5019543;28;20059;-83
2020/12/30 04:20:59;;;;;;;48.67;28.23;;;;;;;2.81;90.49;99617.47;5035103;28;20025;-81
2020/12/30 04:23:24;;;;;;;45.58;27.60;;;;;;;2.80;90.68;99624.41;5033040;28;20085;-82
2020/12/30 04:25:50;;;;;;;49.83;29.63;;;;;;;2.77;90.85;99618.66;5034443;28;20064;-82
2020/12/30 04:28:16;;;;;;;46.35;28.13;;;;;;;2.74;90.59;99617.13;5045869;28;20035;-83
2020/12/30 04:30:41;;;;;;;45.47;28.38;;;;;;;2.80;90.76;99627.00;5045748;28;20030;-82
2020/12/30 04:33:09;;;;;;;46.92;26.92;;;;;;;2.81;90.42;99627.84;5052801;28;20032;-83
2020/12/30 04:35:34;;;;;;;45.40;26.75;;;;;;;2.72;90.79;99622.44;5054609;28;20059;-81
2020/12/30 04:38:00;;;;;;;46.88;28.40;;;;;;;2.76;90.97;99635.97;5036473;28;20061;-81
2020/12/30 04:40:26;;;;;;;52.25;28.73;;;;;;;2.78;91.14;99631.47;5054628;28;20040;-81
2020/12/30 04:42:55;;;;;;;48.03;29.58;;;;;;;2.76;91.38;99642.91;5034623;28;20037;-81
2020/12/30 04:45:20;;;;;;;49.97;29.02;;;;;;;2.79;91.33;99637.47;5027833;28;20399;-80
2020/12/30 04:47:48;;;;;;;48.25;29.30;;;;;;;2.73;90.87;99631.88;5021598;28;20044;-81
2020/12/30 04:50:13;;;;;;;48.10;29.65;;;;;;;2.79;90.93;99646.09;5032778;28;20040;-82
2020/12/30 04:52:41;;;;;;;52.47;29.00;;;;;;;2.82;90.98;99640.63;5028807;28;20037;-80
2020/12/30 04:55:07;;;;;;;48.92;28.55;;;;;;;2.76;91.07;99642.91;5051675;28;20042;-82
2020/12/30 04:57:38;;;;;;;50.53;29.05;;;;;;;2.80;90.78;99652.06;5037056;28;20052;-83
2020/12/30 05:00:07;;;;;;;48.15;28.40;;;;;;;2.78;90.95;99649.59;5037064;28;20048;-82
2020/12/30 05:02:35;;;;;;;48.35;27.63;;;;;;;2.80;90.86;99641.72;5031132;28;20061;-84
2020/12/30 05:05:00;;;;;;;49.35;28.55;;;;;;;2.78;91.02;99647.00;5043537;28;20033;-82
2020/12/30 05:07:28;;;;;;;47.00;29.10;;;;;;;2.73;90.61;99647.41;5044302;28;20067;-81
2020/12/30 05:09:55;;;;;;;55.35;29.40;;;;;;;2.73;91.28;99644.81;5033865;28;20048;-81
2020/12/30 05:12:23;;;;;;;46.10;28.70;;;;;;;2.72;91.29;99652.69;5020109;28;20095;-81
2020/12/30 05:14:48;;;;;;;49.60;28.67;;;;;;;2.76;91.19;99650.69;5053669;28;20041;-82
2020/12/30 05:17:15;;;;;;;50.63;30.02;;;;;;;2.69;91.81;99660.69;5045612;28;20041;-80
2020/12/30 05:19:42;;;;;;;47.45;29.40;;;;;;;2.70;91.62;99663.16;5049556;28;20101;-81
2020/12/30 05:22:14;;;;;;;46.88;28.58;;;;;;;2.71;91.87;99657.06;5069183;28;20037;-78
2020/12/30 05:24:39;;;;;;;48.45;28.60;;;;;;;2.71;91.63;99657.06;5047203;28;20033;-84
2020/12/30 05:27:06;;;;;;;47.83;28.13;;;;;;;2.71;91.48;99663.97;5055009;28;20029;-84
2020/12/30 05:29:32;;;;;;;42.45;27.00;;;;;;;2.68;91.41;99659.06;5013882;28;20446;-84
2020/12/30 05:31:57;;;;;;;44.78;26.65;;;;;;;2.76;91.24;99661.03;5042230;28;20037;-83
2020/12/30 05:34:24;;;;;;;43.28;27.35;;;;;;;2.77;91.27;99668.69;5026865;28;20053;-81
2020/12/30 05:36:51;;;;;;;47.08;28.55;;;;;;;2.72;91.45;99669.03;5043333;28;20167;-81
2020/12/30 05:39:35;;;;;;;43.90;28.10;;;;;;;2.72;90.84;99668.22;5009641;28;20041;-84
2020/12/30 05:42:20;;;;;;;45.65;27.83;;;;;;;2.73;90.88;99668.13;5030140;28;20029;-83
2020/12/30 05:44:47;;;;;;;47.35;28.25;;;;;;;2.77;91.34;99675.63;5053393;28;20075;-80
2020/12/30 05:47:20;;;;;;;46.05;28.35;;;;;;;2.78;91.01;99677.28;5027734;28;20483;-83
2020/12/30 05:49:48;;;;;;;41.38;25.70;;;;;;;2.78;90.28;99685.06;5064574;28;20052;-83
2020/12/30 05:52:26;;;;;;;48.50;28.25;;;;;;;2.73;90.64;99670.72;5029890;28;20048;-84
2020/12/30 05:55:02;;;;;;;44.53;26.98;;;;;;;2.75;90.88;99680.09;5052761;28;20048;-84
2020/12/30 05:57:33;;;;;;;44.75;27.25;;;;;;;2.79;90.75;99692.69;5024471;28;20041;-81
2020/12/30 06:00:13;;;;;;;47.25;27.45;;;;;;;2.80;90.82;99683.16;5007831;28;20526;-83
2020/12/30 06:02:41;;;;;;;41.92;26.92;;;;;;;2.80;90.40;99698.69;5039910;28;20034;-84
2020/12/30 06:05:08;;;;;;;45.38;26.35;;;;;;;2.76;90.47;99694.72;5006380;28;20542;-82
2020/12/30 06:07:37;;;;;;;47.47;27.15;;;;;;;2.77;90.58;99696.34;5023110;28;20045;-82
2020/12/30 06:10:04;;;;;;;45.58;26.63;;;;;;;2.78;90.46;99698.81;5037611;28;20032;-81
2020/12/30 06:12:37;;;;;;;43.17;25.42;;;;;;;2.76;90.52;99699.88;5041638;28;20037;-81
2020/12/30 06:15:03;;;;;;;42.63;25.15;;;;;;;2.77;89.74;99699.78;5036774;28;20049;-82
2020/12/30 06:17:30;;;;;;;40.88;24.70;;;;;;;2.82;89.54;99701.97;5041268;28;20044;-82
2020/12/30 06:19:57;;;;;;;41.35;25.80;;;;;;;2.80;89.75;99704.69;5019357;28;20038;-81
2020/12/30 06:22:24;;;;;;;39.72;24.25;;;;;;;2.77;89.52;99706.69;5037425;28;20045;-81
2020/12/30 06:24:56;;;;;;;44.00;24.90;;;;;;;2.64;89.62;99686.16;5066787;28;20030;-82
2020/12/30 06:27:26;;;;;;;42.05;24.20;;;;;;;2.75;89.60;99709.44;5027114;28;20122;-82
2020/12/30 06:29:55;;;;;;;44.70;25.23;;;;;;;2.73;89.72;99700.94;5058804;28;20059;-82
2020/12/30 06:32:29;;;;;;;43.55;26.08;;;;;;;2.72;90.13;99710.47;5055800;28;20040;-81
2020/12/30 06:34:55;;;;;;;38.85;24.98;;;;;;;2.73;89.91;99716.47;5062531;28;20132;-86
2020/12/30 06:37:28;;;;;;;37.55;23.70;;;;;;;2.73;89.03;99719.91;5080125;28;20712;-81
2020/12/30 06:40:27;;;;;;;38.83;24.02;;;;;;;2.70;89.25;99720.13;5068296;28;20033;-84
2020/12/30 06:43:02;;;;;;;43.03;24.90;;;;;;;2.68;89.43;99726.41;5029369;28;20065;-81
2020/12/30 06:45:43;;;;;;;44.25;25.98;;;;;;;2.70;89.50;99724.50;5053898;28;20337;-83
2020/12/30 06:48:13;;;;;;;42.90;25.85;;;;;;;2.68;89.61;99732.38;5035377;28;20124;-80
2020/12/30 06:50:40;;;;;;;40.50;25.00;;;;;;;2.68;89.16;99731.56;5025812;28;20503;-81
2020/12/30 06:53:51;;;;;;;41.50;25.67;;;;;;;2.53;89.64;99716.28;5069688;28;20388;-83
2020/12/30 06:56:35;;;;;;;41.60;24.55;;;;;;;2.64;89.34;99738.75;4986171;28;20046;-82
2020/12/30 06:59:01;;;;;;;41.05;25.15;;;;;;;2.63;89.47;99744.84;4970418;28;20567;-81
2020/12/30 07:01:27;;;;;;;38.45;25.25;;;;;;;2.59;88.86;99746.03;5005478;28;20037;-82
2020/12/30 07:03:52;;;;;;;42.03;25.15;;;;;;;2.57;89.57;99747.13;5051332;28;20029;-83
2020/12/30 07:06:29;;;;;;;40.60;25.27;;;;;;;2.58;89.70;99748.75;5050407;28;20056;-83
2020/12/30 07:09:00;;;;;;;37.65;25.42;;;;;;;2.64;89.48;99758.66;5054225;28;20037;-83
2020/12/30 07:11:49;;;;;;;41.50;24.38;;;;;;;2.62;89.68;99758.75;5019930;28;20095;-83
2020/12/30 07:14:17;;;;;;;41.05;24.48;;;;;;;2.61;89.20;99758.88;5039044;28;20033;-83
2020/12/30 07:16:48;;;;;;;42.97;25.38;;;;;;;2.56;89.35;99761.00;5039071;28;20103;-83
2020/12/30 07:19:24;;;;;;;39.95;24.88;;;;;;;2.57;89.69;99779.00;5036876;28;20043;-83
2020/12/30 07:21:55;;;;;;;42.35;24.08;;;;;;;2.55;89.67;99775.72;5045353;28;20029;-82
2020/12/30 07:24:22;;;;;;;36.85;24.50;;;;;;;2.56;89.59;99779.94;5063861;28;20048;-81
2020/12/30 07:26:50;;;;;;;43.58;25.30;;;;;;;2.58;89.47;99790.16;5050551;28;20136;-81
2020/12/30 07:29:17;;;;;;;44.85;26.27;;;;;;;2.59;90.08;99786.66;5043423;28;20419;-82
2020/12/30 07:31:47;;;;;;;36.67;23.38;;;;;;;2.57;89.66;99791.94;5021419;28;20029;-85
2020/12/30 07:34:14;;;;;;;42.70;24.13;;;;;;;2.57;89.18;99791.13;5034751;28;20495;-79
2020/12/30 07:36:42;;;;;;;41.33;24.10;;;;;;;2.61;89.07;99795.13;5047410;28;20518;-81
2020/12/30 07:39:07;;;;;;;43.55;23.50;;;;;;;2.51;89.52;99790.66;5053962;28;20431;-82
2020/12/30 07:41:36;;;;;;;37.78;23.67;;;;;;;2.53;88.94;99782.78;5044170;28;20033;-81
2020/12/30 07:44:04;;;;;;;37.30;24.05;;;;;;;2.52;89.34;99794.91;5035168;28;20033;-80
2020/12/30 07:46:29;;;;;;;41.85;24.52;;;;;;;2.51;89.25;99795.00;5043645;28;20040;-80
2020/12/30 07:49:07;;;;;;;45.60;24.83;;;;;;;2.49;89.33;99794.31;5031029;28;20116;-83
2020/12/30 07:51:32;;;;;;;48.45;24.00;;;;;;;2.49;89.15;99797.72;5026698;28;20017;-81
2020/12/30 07:53:58;;;;;;;39.50;23.70;;;;;;;2.54;88.89;99805.13;5036161;28;20097;-83
2020/12/30 07:56:24;;;;;;;40.65;24.23;;;;;;;2.52;88.82;99804.41;5042109;28;20060;-82
2020/12/30 07:58:50;;;;;;;42.60;24.42;;;;;;;2.53;89.27;99804.31;5029578;28;20040;-80
2020/12/30 08:01:17;;;;;;;41.40;23.63;;;;;;;2.55;89.25;99811.97;5022128;28;20040;-83
2020/12/30 08:03:42;;;;;;;41.35;24.17;;;;;;;2.48;89.65;99810.78;5038377;28;20533;-82
2020/12/30 08:06:11;;;;;;;40.83;25.17;;;;;;;2.53;89.52;99819.03;5039067;28;20041;-85
2020/12/30 08:08:41;;;;;;;40.50;23.75;;;;;;;2.42;89.00;99809.47;5047478;28;20104;-82
2020/12/30 08:11:07;;;;;;;38.13;23.73;;;;;;;2.52;88.90;99828.56;5054373;28;20567;-83
2020/12/30 08:13:32;;;;;;;40.05;23.40;;;;;;;2.50;88.97;99835.59;5059636;28;20060;-81
2020/12/30 08:15:58;;;;;;;41.70;23.50;;;;;;;2.45;89.21;99829.13;5056677;28;20044;-81
2020/12/30 08:18:23;;;;;;;39.45;23.35;;;;;;;2.50;88.95;99837.38;5034524;28;20037;-79
2020/12/30 08:20:49;;;;;;;38.63;24.08;;;;;;;2.46;89.10;99830.78;5046867;28;20275;-80
2020/12/30 08:23:18;;;;;;;45.25;25.75;;;;;;;2.46;88.95;99841.94;5050335;28;20029;-79
2020/12/30 08:25:50;;;;;;;42.15;25.08;;;;;;;2.52;89.87;99851.84;5040081;28;20138;-81
2020/12/30 08:28:16;;;;;;;49.72;24.25;;;;;;;2.58;89.36;99860.91;5035564;28;20032;-79
2020/12/30 08:30:43;;;;;;;45.17;25.60;;;;;;;2.60;88.81;99860.78;5045961;28;20411;-80
2020/12/30 08:33:14;;;;;;;44.88;25.60;;;;;;;2.58;89.05;99873.88;5052086;28;20211;-80
2020/12/30 08:35:46;;;;;;;41.58;25.65;;;;;;;2.51;88.89;99876.09;5058929;28;20037;-80
2020/12/30 08:38:16;;;;;;;40.25;24.52;;;;;;;2.38;89.03;99851.25;5047288;28;20578;-80
2020/12/30 08:40:42;;;;;;;38.67;24.35;;;;;;;2.51;88.95;99880.44;5037116;28;20045;-81
2020/12/30 08:43:11;;;;;;;44.83;24.77;;;;;;;2.48;88.92;99881.47;5020766;28;20518;-80
2020/12/30 08:45:45;;;;;;;44.53;24.40;;;;;;;2.46;89.28;99874.78;5061045;28;20040;-81
2020/12/30 08:48:16;;;;;;;42.03;25.83;;;;;;;2.45;89.60;99876.56;5059646;28;20079;-82
2020/12/30 08:50:42;;;;;;;46.75;25.10;;;;;;;2.41;89.62;99874.28;5042234;28;20051;-82
2020/12/30 08:53:08;;;;;;;42.53;24.30;;;;;;;2.42;89.13;99870.78;5044732;28;20053;-80
2020/12/30 08:55:34;;;;;;;43.25;25.33;;;;;;;2.32;88.91;99873.25;5057987;28;20029;-81
2020/12/30 08:58:00;;;;;;;46.90;26.83;;;;;;;2.34;89.05;99886.88;5060279;28;20036;-80
2020/12/30 09:00:33;;;;;;;45.70;26.42;;;;;;;2.34;89.28;99887.69;5044890;28;20135;-81
2020/12/30 09:03:13;;;;;;;44.95;25.90;;;;;;;2.34;89.73;99887.69;5058045;28;20506;-80
2020/12/30 09:05:39;;;;;;;50.53;26.75;;;;;;;2.31;89.16;99889.69;5061069;28;20041;-80
2020/12/30 09:08:15;;;;;;;41.17;25.33;;;;;;;2.29;89.53;99894.97;5057192;28;20045;-78
2020/12/30 09:10:41;;;;;;;46.30;26.02;;;;;;;2.33;89.42;99893.81;5041355;28;20052;-79
2020/12/30 09:13:11;;;;;;;46.47;26.45;;;;;;;2.33;89.27;99898.16;5063526;28;20094;-81
2020/12/30 09:15:37;;;;;;;45.17;25.63;;;;;;;2.39;88.26;99889.13;5056873;28;20037;-80
2020/12/30 09:18:03;;;;;;;44.63;26.45;;;;;;;2.34;88.95;99905.81;5053758;28;20040;-80
2020/12/30 09:20:33;;;;;;;49.20;26.20;;;;;;;2.34;88.83;99907.59;5039906;28;20136;-83
2020/12/30 09:23:03;;;;;;;46.80;26.52;;;;;;;2.37;89.19;99906.53;5058074;28;20025;-80
2020/12/30 09:25:31;;;;;;;46.17;25.98;;;;;;;2.37;89.18;99893.59;5058600;28;20060;-79
2020/12/30 09:27:57;;;;;;;48.13;26.58;;;;;;;2.44;88.89;99908.53;5042865;28;20044;-80
2020/12/30 09:30:26;;;;;;;44.22;25.50;;;;;;;2.57;89.26;99911.03;5054056;28;20033;-82
2020/12/30 09:32:54;;;;;;;46.70;26.65;;;;;;;2.59;88.92;99911.75;5032023;28;20055;-81
2020/12/30 09:35:26;;;;;;;40.72;25.08;;;;;;;2.58;88.41;99899.75;5061805;28;20049;-81
2020/12/30 09:37:53;;;;;;;;;;;;;;;2.57;88.43;99911.03;5061452;28;20060;-80
2020/12/30 09:40:19;;;;;;;39.90;23.98;;;;;;;2.50;88.50;99907.25;5057822;28;20350;-81
2020/12/30 09:42:46;;;;;;;41.95;23.65;;;;;;;2.46;88.64;99906.66;5050961;28;20036;-80
2020/12/30 09:45:14;;;;;;;43.58;24.30;;;;;;;2.42;89.23;99912.19;5060489;28;20159;-82
2020/12/30 09:47:40;;;;;;;46.35;25.20;;;;;;;2.33;88.86;99887.81;5045964;28;20032;-81
2020/12/30 09:50:09;;;;;;;50.67;25.42;;;;;;;2.44;88.75;99918.06;5043041;28;20395;-80
2020/12/30 09:52:39;;;;;;;45.30;24.75;;;;;;;2.41;88.86;99918.28;5057063;28;20044;-80
2020/12/30 09:55:06;;;;;;;41.95;24.48;;;;;;;2.49;89.14;99921.16;5038670;28;20041;-80
2020/12/30 09:57:33;;;;;;;41.00;23.92;;;;;;;2.45;88.79;99920.56;5035927;28;20407;-80
2020/12/30 09:59:59;;;;;;;45.10;24.95;;;;;;;2.44;88.80;99920.66;5049660;28;20164;-81
2020/12/30 10:02:26;;;;;;;42.78;24.73;;;;;;;2.49;88.97;99926.34;5040321;28;20037;-80
2020/12/30 10:04:51;;;;;;;43.17;24.63;;;;;;;2.46;88.92;99918.78;5054427;28;20778;-80
2020/12/30 10:07:17;;;;;;;42.30;24.23;;;;;;;2.49;88.72;99924.56;5044682;28;20024;-81
2020/12/30 10:09:42;;;;;;;40.38;23.73;;;;;;;2.42;88.62;99902.66;5040283;28;20036;-80
2020/12/30 10:12:08;;;;;;;44.03;23.45;;;;;;;2.45;88.21;99930.91;5039363;28;20033;-81
2020/12/30 10:14:33;;;;;;;41.03;24.10;;;;;;;2.44;88.51;99929.25;5055375;28;20537;-80
2020/12/30 10:16:59;;;;;;;39.63;22.75;;;;;;;2.43;89.00;99926.75;5037954;28;20059;-79
2020/12/30 10:19:24;;;;;;;43.60;25.25;;;;;;;2.51;89.35;99937.41;5016794;28;20036;-80
2020/12/30 10:21:50;;;;;;;42.45;24.33;;;;;;;2.47;88.62;99941.97;5056060;28;20436;-80
2020/12/30 10:24:16;;;;;;;40.13;23.23;;;;;;;2.41;88.68;99932.09;5039856;28;20044;-80
2020/12/30 10:26:41;;;;;;;46.33;24.55;;;;;;;2.48;88.70;99948.78;5039887;28;20056;-81
2020/12/30 10:29:07;;;;;;;43.60;24.67;;;;;;;2.48;89.26;99938.44;5031183;28;20103;-80
2020/12/30 10:31:32;;;;;;;43.25;23.13;;;;;;;2.55;88.81;99940.59;5057118;28;20051;-80
2020/12/30 10:33:58;;;;;;;41.35;23.42;;;;;;;2.51;89.51;99937.41;5025788;28;20167;-82
2020/12/30 10:36:28;;;;;;;40.92;22.88;;;;;;;2.48;89.58;99937.63;5026568;28;20025;-81
2020/12/30 10:38:56;;;;;;;42.90;23.45;;;;;;;2.56;89.40;99945.63;5030890;28;20087;-81
2020/12/30 10:41:21;;;;;;;40.25;23.42;;;;;;;2.49;88.92;99936.69;5037133;28;20029;-79
2020/12/30 10:43:47;;;;;;;47.05;23.27;;;;;;;2.57;89.11;99946.47;5038565;28;20091;-81
2020/12/30 10:46:14;;;;;;;41.58;24.38;;;;;;;2.58;89.17;99941.19;5021790;28;20064;-80
2020/12/30 10:48:44;;;;;;;43.30;25.15;;;;;;;2.64;89.01;99942.50;5062130;28;20041;-81
2020/12/30 10:51:17;;;;;;;42.50;23.02;;;;;;;2.63;88.59;99938.22;5048130;28;20044;-79
2020/12/30 10:53:43;;;;;;;42.03;24.17;;;;;;;2.69;88.42;99938.63;5054811;28;20060;-78
2020/12/30 10:56:10;;;;;;;47.40;23.23;;;;;;;2.65;88.47;99937.16;5021605;28;20055;-80
2020/12/30 10:58:39;;;;;;;45.75;24.38;;;;;;;2.64;89.05;99932.94;5041703;28;20045;-81
2020/12/30 11:01:09;;;;;;;43.45;23.38;;;;;;;2.63;88.92;99941.66;5038409;28;20087;-80
2020/12/30 11:03:35;;;;;;;41.10;23.15;;;;;;;2.68;89.29;99936.94;5054644;28;20049;-80
2020/12/30 11:06:02;;;;;;;43.20;22.48;;;;;;;2.65;89.04;99936.34;5037604;28;20056;-82
2020/12/30 11:08:28;;;;;;;42.22;23.25;;;;;;;2.68;89.22;99943.91;5031964;28;20061;-81
2020/12/30 11:10:56;;;;;;;40.67;22.80;;;;;;;2.71;89.30;99938.47;5051895;28;20053;-81
2020/12/30 11:13:23;;;;;;;41.42;22.65;;;;;;;2.70;89.28;99934.25;5052538;28;20057;-81
2020/12/30 11:15:49;;;;;;;42.88;22.63;;;;;;;2.67;88.92;99940.47;5063315;28;20174;-83
2020/12/30 11:18:14;;;;;;;38.33;21.85;;;;;;;2.65;89.15;99941.53;5059620;28;20129;-82
2020/12/30 11:20:40;;;;;;;36.38;22.58;;;;;;;2.69;89.55;99940.34;5023046;28;20550;-80
2020/12/30 11:23:05;;;;;;;42.30;23.77;;;;;;;2.75;89.44;99949.44;5027234;28;20060;-79
2020/12/30 11:25:31;;;;;;;41.00;22.38;;;;;;;2.74;89.08;99940.84;5055375;28;20025;-78
2020/12/30 11:27:56;;;;;;;38.55;22.60;;;;;;;2.73;89.56;99934.84;5048500;28;20060;-79